sensor_id;sensor_type;location;lat;lon;timestamp;P1;durP1;ratioP1;P2;durP2;ratioP2
12208;SDS011;6167;43.080;25.634;2023-11-21T00:00:38;288.30;;;156.73;;
12208;SDS011;6167;43.080;25.634;2023-11-21T00:03:05;94.33;;;50.90;;
12208;SDS011;6167;43.080;25.634;2023-11-21T00:05:32;50.13;;;30.03;;
12208;SDS011;6167;43.080;25.634;2023-11-21T00:07:58;46.43;;;29.33;;
12208;SDS011;6167;43.080;25.634;2023-11-21T00:10:25;74.03;;;45.80;;
12208;SDS011;6167;43.080;25.634;2023-11-21T00:12:54;54.63;;;34.83;;
12208;SDS011;6167;43.080;25.634;2023-11-21T00:15:21;49.23;;;32.63;;
12208;SDS011;6167;43.080;25.634;2023-11-21T00:17:48;67.93;;;41.47;;
12208;SDS011;6167;43.080;25.634;2023-11-21T00:20:15;81.43;;;50.33;;
12208;SDS011;6167;43.080;25.634;2023-11-21T00:22:41;87.60;;;52.60;;
12208;SDS011;6167;43.080;25.634;2023-11-21T00:25:08;67.60;;;42.00;;
12208;SDS011;6167;43.080;25.634;2023-11-21T00:27:35;56.70;;;34.97;;
12208;SDS011;6167;43.080;25.634;2023-11-21T00:30:04;57.03;;;36.57;;
12208;SDS011;6167;43.080;25.634;2023-11-21T00:32:31;65.40;;;41.70;;
12208;SDS011;6167;43.080;25.634;2023-11-21T00:34:59;99.47;;;62.87;;
12208;SDS011;6167;43.080;25.634;2023-11-21T00:37:25;74.77;;;47.77;;
12208;SDS011;6167;43.080;25.634;2023-11-21T00:39:52;63.77;;;41.40;;
12208;SDS011;6167;43.080;25.634;2023-11-21T00:42:19;54.03;;;37.87;;
12208;SDS011;6167;43.080;25.634;2023-11-21T00:44:46;55.97;;;37.63;;
12208;SDS011;6167;43.080;25.634;2023-11-21T00:47:14;48.83;;;34.83;;
12208;SDS011;6167;43.080;25.634;2023-11-21T00:49:41;30.97;;;22.17;;
12208;SDS011;6167;43.080;25.634;2023-11-21T00:52:08;36.13;;;25.60;;
12208;SDS011;6167;43.080;25.634;2023-11-21T00:54:35;37.67;;;25.90;;
12208;SDS011;6167;43.080;25.634;2023-11-21T00:57:02;26.50;;;19.97;;
12208;SDS011;6167;43.080;25.634;2023-11-21T00:59:29;39.03;;;32.93;;
12208;SDS011;6167;43.080;25.634;2023-11-21T01:01:55;28.60;;;21.43;;
12208;SDS011;6167;43.080;25.634;2023-11-21T01:04:27;29.87;;;20.17;;
12208;SDS011;6167;43.080;25.634;2023-11-21T01:06:53;168.90;;;107.53;;
12208;SDS011;6167;43.080;25.634;2023-11-21T01:09:20;79.13;;;53.20;;
12208;SDS011;6167;43.080;25.634;2023-11-21T01:11:47;40.20;;;28.33;;
12208;SDS011;6167;43.080;25.634;2023-11-21T01:14:13;36.13;;;25.03;;
12208;SDS011;6167;43.080;25.634;2023-11-21T01:16:40;43.27;;;32.10;;
12208;SDS011;6167;43.080;25.634;2023-11-21T01:19:07;19.60;;;12.47;;
12208;SDS011;6167;43.080;25.634;2023-11-21T01:21:35;16.80;;;12.03;;
12208;SDS011;6167;43.080;25.634;2023-11-21T01:24:02;15.83;;;11.90;;
12208;SDS011;6167;43.080;25.634;2023-11-21T01:26:30;17.77;;;13.50;;
12208;SDS011;6167;43.080;25.634;2023-11-21T01:28:57;14.93;;;11.77;;
12208;SDS011;6167;43.080;25.634;2023-11-21T01:31:24;16.03;;;11.30;;
12208;SDS011;6167;43.080;25.634;2023-11-21T01:33:54;17.47;;;10.47;;
12208;SDS011;6167;43.080;25.634;2023-11-21T01:36:21;16.97;;;12.20;;
12208;SDS011;6167;43.080;25.634;2023-11-21T01:38:49;17.33;;;13.83;;
12208;SDS011;6167;43.080;25.634;2023-11-21T01:41:15;28.97;;;25.80;;
12208;SDS011;6167;43.080;25.634;2023-11-21T01:43:42;36.50;;;28.13;;
12208;SDS011;6167;43.080;25.634;2023-11-21T01:46:09;28.33;;;21.20;;
12208;SDS011;6167;43.080;25.634;2023-11-21T01:48:36;24.13;;;15.07;;
12208;SDS011;6167;43.080;25.634;2023-11-21T01:51:03;24.47;;;16.00;;
12208;SDS011;6167;43.080;25.634;2023-11-21T01:53:30;17.93;;;13.87;;
12208;SDS011;6167;43.080;25.634;2023-11-21T01:55:58;19.70;;;13.43;;
12208;SDS011;6167;43.080;25.634;2023-11-21T01:58:25;23.67;;;13.07;;
12208;SDS011;6167;43.080;25.634;2023-11-21T02:00:51;22.83;;;13.00;;
12208;SDS011;6167;43.080;25.634;2023-11-21T02:03:20;21.93;;;14.80;;
12208;SDS011;6167;43.080;25.634;2023-11-21T02:05:46;36.50;;;25.60;;
12208;SDS011;6167;43.080;25.634;2023-11-21T02:08:13;28.43;;;22.10;;
12208;SDS011;6167;43.080;25.634;2023-11-21T02:10:40;26.60;;;18.70;;
12208;SDS011;6167;43.080;25.634;2023-11-21T02:13:08;27.53;;;18.20;;
12208;SDS011;6167;43.080;25.634;2023-11-21T02:15:36;33.17;;;22.80;;
12208;SDS011;6167;43.080;25.634;2023-11-21T02:20:34;64.33;;;42.53;;
12208;SDS011;6167;43.080;25.634;2023-11-21T02:23:03;26.60;;;19.40;;
12208;SDS011;6167;43.080;25.634;2023-11-21T02:25:30;32.63;;;19.70;;
12208;SDS011;6167;43.080;25.634;2023-11-21T02:27:58;322.77;;;151.97;;
12208;SDS011;6167;43.080;25.634;2023-11-21T02:30:25;311.43;;;157.30;;
12208;SDS011;6167;43.080;25.634;2023-11-21T02:32:53;25.47;;;17.20;;
12208;SDS011;6167;43.080;25.634;2023-11-21T02:35:19;20.37;;;15.03;;
12208;SDS011;6167;43.080;25.634;2023-11-21T02:37:47;29.20;;;22.33;;
12208;SDS011;6167;43.080;25.634;2023-11-21T02:40:15;24.67;;;14.33;;
12208;SDS011;6167;43.080;25.634;2023-11-21T02:42:43;24.60;;;16.80;;
12208;SDS011;6167;43.080;25.634;2023-11-21T02:45:09;23.93;;;15.23;;
12208;SDS011;6167;43.080;25.634;2023-11-21T02:47:37;20.70;;;15.43;;
12208;SDS011;6167;43.080;25.634;2023-11-21T02:50:04;24.73;;;16.83;;
12208;SDS011;6167;43.080;25.634;2023-11-21T02:52:32;21.17;;;14.67;;
12208;SDS011;6167;43.080;25.634;2023-11-21T02:55:00;18.73;;;13.73;;
12208;SDS011;6167;43.080;25.634;2023-11-21T02:57:28;21.97;;;13.67;;
12208;SDS011;6167;43.080;25.634;2023-11-21T02:59:55;28.97;;;19.37;;
12208;SDS011;6167;43.080;25.634;2023-11-21T03:02:22;34.10;;;23.53;;
12208;SDS011;6167;43.080;25.634;2023-11-21T03:04:48;81.10;;;47.90;;
12208;SDS011;6167;43.080;25.634;2023-11-21T03:07:15;23.73;;;16.57;;
12208;SDS011;6167;43.080;25.634;2023-11-21T03:09:42;29.37;;;18.17;;
12208;SDS011;6167;43.080;25.634;2023-11-21T03:12:09;21.30;;;13.80;;
12208;SDS011;6167;43.080;25.634;2023-11-21T03:14:38;22.73;;;15.57;;
12208;SDS011;6167;43.080;25.634;2023-11-21T03:17:05;20.13;;;14.60;;
12208;SDS011;6167;43.080;25.634;2023-11-21T03:19:31;40.00;;;25.10;;
12208;SDS011;6167;43.080;25.634;2023-11-21T03:21:58;62.63;;;37.20;;
12208;SDS011;6167;43.080;25.634;2023-11-21T03:24:25;51.13;;;33.07;;
12208;SDS011;6167;43.080;25.634;2023-11-21T03:26:51;47.07;;;32.40;;
12208;SDS011;6167;43.080;25.634;2023-11-21T03:29:18;27.47;;;18.70;;
12208;SDS011;6167;43.080;25.634;2023-11-21T03:31:46;27.00;;;15.87;;
12208;SDS011;6167;43.080;25.634;2023-11-21T03:34:15;23.87;;;15.90;;
12208;SDS011;6167;43.080;25.634;2023-11-21T03:36:41;33.97;;;21.30;;
12208;SDS011;6167;43.080;25.634;2023-11-21T03:39:08;28.20;;;17.37;;
12208;SDS011;6167;43.080;25.634;2023-11-21T03:41:34;25.83;;;15.40;;
12208;SDS011;6167;43.080;25.634;2023-11-21T03:44:01;23.17;;;15.17;;
12208;SDS011;6167;43.080;25.634;2023-11-21T03:46:28;20.87;;;13.90;;
12208;SDS011;6167;43.080;25.634;2023-11-21T03:48:56;24.73;;;17.27;;
12208;SDS011;6167;43.080;25.634;2023-11-21T03:51:23;21.53;;;14.73;;
12208;SDS011;6167;43.080;25.634;2023-11-21T03:53:49;20.70;;;14.93;;
12208;SDS011;6167;43.080;25.634;2023-11-21T03:56:16;23.03;;;16.17;;
12208;SDS011;6167;43.080;25.634;2023-11-21T03:58:43;22.27;;;15.57;;
12208;SDS011;6167;43.080;25.634;2023-11-21T04:01:09;17.93;;;13.70;;
12208;SDS011;6167;43.080;25.634;2023-11-21T04:03:36;21.47;;;14.67;;
12208;SDS011;6167;43.080;25.634;2023-11-21T04:06:05;30.73;;;20.07;;
12208;SDS011;6167;43.080;25.634;2023-11-21T04:08:32;50.90;;;32.53;;
12208;SDS011;6167;43.080;25.634;2023-11-21T04:10:59;43.33;;;27.23;;
12208;SDS011;6167;43.080;25.634;2023-11-21T04:13:26;342.53;;;164.87;;
12208;SDS011;6167;43.080;25.634;2023-11-21T04:15:53;81.97;;;43.50;;
12208;SDS011;6167;43.080;25.634;2023-11-21T04:18:19;39.43;;;23.70;;
12208;SDS011;6167;43.080;25.634;2023-11-21T04:20:46;39.03;;;24.37;;
12208;SDS011;6167;43.080;25.634;2023-11-21T04:23:14;21.93;;;15.10;;
12208;SDS011;6167;43.080;25.634;2023-11-21T04:25:41;22.67;;;14.40;;
12208;SDS011;6167;43.080;25.634;2023-11-21T04:28:07;23.07;;;16.00;;
12208;SDS011;6167;43.080;25.634;2023-11-21T04:30:34;33.73;;;24.63;;
12208;SDS011;6167;43.080;25.634;2023-11-21T04:33:00;22.10;;;15.73;;
12208;SDS011;6167;43.080;25.634;2023-11-21T04:35:28;28.40;;;19.20;;
12208;SDS011;6167;43.080;25.634;2023-11-21T04:37:56;23.73;;;14.37;;
12208;SDS011;6167;43.080;25.634;2023-11-21T04:40:24;22.37;;;14.20;;
12208;SDS011;6167;43.080;25.634;2023-11-21T04:42:52;22.77;;;14.50;;
12208;SDS011;6167;43.080;25.634;2023-11-21T04:45:18;31.60;;;18.33;;
12208;SDS011;6167;43.080;25.634;2023-11-21T04:47:45;214.63;;;97.53;;
12208;SDS011;6167;43.080;25.634;2023-11-21T04:50:12;191.43;;;79.43;;
12208;SDS011;6167;43.080;25.634;2023-11-21T04:52:38;76.80;;;40.40;;
12208;SDS011;6167;43.080;25.634;2023-11-21T04:55:05;56.97;;;39.27;;
12208;SDS011;6167;43.080;25.634;2023-11-21T04:57:36;25.37;;;14.87;;
12208;SDS011;6167;43.080;25.634;2023-11-21T05:00:03;40.50;;;23.60;;
12208;SDS011;6167;43.080;25.634;2023-11-21T05:02:31;25.27;;;15.50;;
12208;SDS011;6167;43.080;25.634;2023-11-21T05:04:59;23.03;;;14.00;;
12208;SDS011;6167;43.080;25.634;2023-11-21T05:07:25;26.63;;;15.53;;
12208;SDS011;6167;43.080;25.634;2023-11-21T05:09:53;36.93;;;25.70;;
12208;SDS011;6167;43.080;25.634;2023-11-21T05:12:21;31.03;;;23.97;;
12208;SDS011;6167;43.080;25.634;2023-11-21T05:14:50;16.07;;;11.20;;
12208;SDS011;6167;43.080;25.634;2023-11-21T05:17:16;16.67;;;10.17;;
12208;SDS011;6167;43.080;25.634;2023-11-21T05:19:45;15.57;;;10.17;;
12208;SDS011;6167;43.080;25.634;2023-11-21T05:22:13;15.50;;;10.37;;
12208;SDS011;6167;43.080;25.634;2023-11-21T05:24:40;13.57;;;10.17;;
12208;SDS011;6167;43.080;25.634;2023-11-21T05:27:06;17.23;;;10.90;;
12208;SDS011;6167;43.080;25.634;2023-11-21T05:29:34;14.67;;;9.93;;
12208;SDS011;6167;43.080;25.634;2023-11-21T05:32:04;15.57;;;10.50;;
12208;SDS011;6167;43.080;25.634;2023-11-21T05:34:31;15.37;;;10.93;;
12208;SDS011;6167;43.080;25.634;2023-11-21T05:36:57;16.93;;;11.03;;
12208;SDS011;6167;43.080;25.634;2023-11-21T05:39:24;15.17;;;11.67;;
12208;SDS011;6167;43.080;25.634;2023-11-21T05:41:49;18.13;;;11.23;;
12208;SDS011;6167;43.080;25.634;2023-11-21T05:44:16;20.47;;;11.37;;
12208;SDS011;6167;43.080;25.634;2023-11-21T05:46:43;18.03;;;12.17;;
12208;SDS011;6167;43.080;25.634;2023-11-21T05:49:11;16.90;;;12.03;;
12208;SDS011;6167;43.080;25.634;2023-11-21T05:51:37;21.00;;;12.13;;
12208;SDS011;6167;43.080;25.634;2023-11-21T05:54:04;20.27;;;13.33;;
12208;SDS011;6167;43.080;25.634;2023-11-21T05:56:31;25.43;;;13.70;;
12208;SDS011;6167;43.080;25.634;2023-11-21T05:58:57;19.97;;;13.03;;
12208;SDS011;6167;43.080;25.634;2023-11-21T06:01:25;21.40;;;14.93;;
12208;SDS011;6167;43.080;25.634;2023-11-21T06:03:53;22.43;;;13.90;;
12208;SDS011;6167;43.080;25.634;2023-11-21T06:06:21;21.27;;;13.43;;
12208;SDS011;6167;43.080;25.634;2023-11-21T06:08:49;24.00;;;15.10;;
12208;SDS011;6167;43.080;25.634;2023-11-21T06:11:16;20.13;;;14.03;;
12208;SDS011;6167;43.080;25.634;2023-11-21T06:13:43;21.60;;;14.27;;
12208;SDS011;6167;43.080;25.634;2023-11-21T06:16:10;21.20;;;14.27;;
12208;SDS011;6167;43.080;25.634;2023-11-21T06:18:38;23.13;;;14.60;;
12208;SDS011;6167;43.080;25.634;2023-11-21T06:21:05;22.07;;;15.57;;
12208;SDS011;6167;43.080;25.634;2023-11-21T06:23:33;29.30;;;15.17;;
12208;SDS011;6167;43.080;25.634;2023-11-21T06:26:00;25.13;;;16.67;;
12208;SDS011;6167;43.080;25.634;2023-11-21T06:28:26;26.30;;;17.33;;
12208;SDS011;6167;43.080;25.634;2023-11-21T06:30:53;28.33;;;17.07;;
12208;SDS011;6167;43.080;25.634;2023-11-21T06:33:20;30.00;;;17.23;;
12208;SDS011;6167;43.080;25.634;2023-11-21T06:35:47;35.60;;;21.57;;
12208;SDS011;6167;43.080;25.634;2023-11-21T06:38:13;34.63;;;20.73;;
12208;SDS011;6167;43.080;25.634;2023-11-21T06:40:41;37.40;;;20.13;;
12208;SDS011;6167;43.080;25.634;2023-11-21T06:43:08;29.63;;;17.47;;
12208;SDS011;6167;43.080;25.634;2023-11-21T06:45:33;28.03;;;17.57;;
12208;SDS011;6167;43.080;25.634;2023-11-21T06:48:00;20.20;;;14.67;;
12208;SDS011;6167;43.080;25.634;2023-11-21T06:50:26;24.23;;;16.00;;
12208;SDS011;6167;43.080;25.634;2023-11-21T06:52:53;24.17;;;15.53;;
12208;SDS011;6167;43.080;25.634;2023-11-21T06:55:20;25.17;;;16.57;;
12208;SDS011;6167;43.080;25.634;2023-11-21T06:57:48;24.60;;;15.57;;
12208;SDS011;6167;43.080;25.634;2023-11-21T07:00:15;25.97;;;15.57;;
12208;SDS011;6167;43.080;25.634;2023-11-21T07:02:42;22.57;;;14.63;;
12208;SDS011;6167;43.080;25.634;2023-11-21T07:05:09;24.47;;;16.03;;
12208;SDS011;6167;43.080;25.634;2023-11-21T07:07:36;24.63;;;15.60;;
12208;SDS011;6167;43.080;25.634;2023-11-21T07:10:04;27.90;;;17.87;;
12208;SDS011;6167;43.080;25.634;2023-11-21T07:12:30;28.93;;;17.60;;
12208;SDS011;6167;43.080;25.634;2023-11-21T07:14:58;28.53;;;18.53;;
12208;SDS011;6167;43.080;25.634;2023-11-21T07:17:25;33.23;;;19.43;;
12208;SDS011;6167;43.080;25.634;2023-11-21T07:19:52;33.57;;;19.73;;
12208;SDS011;6167;43.080;25.634;2023-11-21T07:22:19;33.97;;;21.00;;
12208;SDS011;6167;43.080;25.634;2023-11-21T07:24:47;29.70;;;20.33;;
12208;SDS011;6167;43.080;25.634;2023-11-21T07:27:14;29.73;;;21.83;;
12208;SDS011;6167;43.080;25.634;2023-11-21T07:29:41;35.93;;;22.17;;
12208;SDS011;6167;43.080;25.634;2023-11-21T07:32:09;43.50;;;24.53;;
12208;SDS011;6167;43.080;25.634;2023-11-21T07:34:35;43.10;;;23.73;;
12208;SDS011;6167;43.080;25.634;2023-11-21T07:37:02;27.40;;;17.47;;
12208;SDS011;6167;43.080;25.634;2023-11-21T07:39:30;22.67;;;15.13;;
12208;SDS011;6167;43.080;25.634;2023-11-21T07:41:57;27.83;;;16.30;;
12208;SDS011;6167;43.080;25.634;2023-11-21T07:44:26;28.93;;;18.13;;
12208;SDS011;6167;43.080;25.634;2023-11-21T07:46:53;30.30;;;18.53;;
12208;SDS011;6167;43.080;25.634;2023-11-21T07:49:24;27.73;;;18.43;;
12208;SDS011;6167;43.080;25.634;2023-11-21T07:51:52;32.03;;;16.63;;
12208;SDS011;6167;43.080;25.634;2023-11-21T07:54:19;27.63;;;16.33;;
12208;SDS011;6167;43.080;25.634;2023-11-21T07:56:46;30.97;;;15.73;;
12208;SDS011;6167;43.080;25.634;2023-11-21T07:59:13;25.13;;;16.50;;
12208;SDS011;6167;43.080;25.634;2023-11-21T08:01:39;22.07;;;17.67;;
12208;SDS011;6167;43.080;25.634;2023-11-21T08:04:08;24.80;;;17.90;;
12208;SDS011;6167;43.080;25.634;2023-11-21T08:06:36;29.17;;;17.87;;
12208;SDS011;6167;43.080;25.634;2023-11-21T08:09:03;29.77;;;18.97;;
12208;SDS011;6167;43.080;25.634;2023-11-21T08:11:29;30.50;;;18.33;;
12208;SDS011;6167;43.080;25.634;2023-11-21T08:13:58;30.83;;;19.57;;
12208;SDS011;6167;43.080;25.634;2023-11-21T08:16:25;32.50;;;20.73;;
12208;SDS011;6167;43.080;25.634;2023-11-21T08:18:52;31.97;;;20.20;;
12208;SDS011;6167;43.080;25.634;2023-11-21T08:21:19;34.10;;;20.60;;
12208;SDS011;6167;43.080;25.634;2023-11-21T08:23:47;33.37;;;20.20;;
12208;SDS011;6167;43.080;25.634;2023-11-21T08:26:18;32.77;;;19.93;;
12208;SDS011;6167;43.080;25.634;2023-11-21T08:28:45;30.57;;;19.93;;
12208;SDS011;6167;43.080;25.634;2023-11-21T08:31:12;28.27;;;18.07;;
12208;SDS011;6167;43.080;25.634;2023-11-21T08:33:39;28.27;;;17.77;;
12208;SDS011;6167;43.080;25.634;2023-11-21T08:36:06;29.47;;;17.00;;
12208;SDS011;6167;43.080;25.634;2023-11-21T08:38:33;23.37;;;14.47;;
12208;SDS011;6167;43.080;25.634;2023-11-21T08:41:02;26.50;;;16.43;;
12208;SDS011;6167;43.080;25.634;2023-11-21T08:43:29;16.27;;;11.67;;
12208;SDS011;6167;43.080;25.634;2023-11-21T08:45:55;17.30;;;10.23;;
12208;SDS011;6167;43.080;25.634;2023-11-21T08:48:22;13.37;;;9.40;;
12208;SDS011;6167;43.080;25.634;2023-11-21T08:50:49;17.83;;;12.23;;
12208;SDS011;6167;43.080;25.634;2023-11-21T08:53:19;13.00;;;9.03;;
12208;SDS011;6167;43.080;25.634;2023-11-21T08:55:45;12.57;;;8.70;;
12208;SDS011;6167;43.080;25.634;2023-11-21T08:58:13;14.33;;;9.83;;
12208;SDS011;6167;43.080;25.634;2023-11-21T09:00:41;20.57;;;10.57;;
12208;SDS011;6167;43.080;25.634;2023-11-21T09:03:09;14.33;;;10.63;;
12208;SDS011;6167;43.080;25.634;2023-11-21T09:05:37;12.63;;;9.70;;
12208;SDS011;6167;43.080;25.634;2023-11-21T09:08:05;18.98;;;12.00;;
12208;SDS011;6167;43.080;25.634;2023-11-21T09:10:32;18.52;;;11.75;;
12208;SDS011;6167;43.080;25.634;2023-11-21T09:13:00;18.13;;;11.82;;
12208;SDS011;6167;43.080;25.634;2023-11-21T09:15:29;16.75;;;11.13;;
12208;SDS011;6167;43.080;25.634;2023-11-21T09:17:55;16.63;;;11.23;;
12208;SDS011;6167;43.080;25.634;2023-11-21T09:20:22;16.02;;;11.57;;
12208;SDS011;6167;43.080;25.634;2023-11-21T09:22:49;17.48;;;10.98;;
12208;SDS011;6167;43.080;25.634;2023-11-21T09:25:16;20.20;;;12.23;;
12208;SDS011;6167;43.080;25.634;2023-11-21T09:27:44;22.52;;;11.73;;
12208;SDS011;6167;43.080;25.634;2023-11-21T09:30:11;18.90;;;10.90;;
12208;SDS011;6167;43.080;25.634;2023-11-21T09:32:40;13.15;;;10.05;;
12208;SDS011;6167;43.080;25.634;2023-11-21T09:35:10;18.85;;;12.32;;
12208;SDS011;6167;43.080;25.634;2023-11-21T09:37:39;17.92;;;11.73;;
12208;SDS011;6167;43.080;25.634;2023-11-21T09:40:06;16.05;;;11.15;;
12208;SDS011;6167;43.080;25.634;2023-11-21T09:42:39;20.65;;;13.20;;
12208;SDS011;6167;43.080;25.634;2023-11-21T09:45:09;15.60;;;10.60;;
12208;SDS011;6167;43.080;25.634;2023-11-21T09:47:40;19.00;;;12.93;;
12208;SDS011;6167;43.080;25.634;2023-11-21T09:50:07;20.48;;;12.65;;
12208;SDS011;6167;43.080;25.634;2023-11-21T09:52:38;16.45;;;12.25;;
12208;SDS011;6167;43.080;25.634;2023-11-21T09:55:06;15.90;;;10.27;;
12208;SDS011;6167;43.080;25.634;2023-11-21T09:57:33;16.15;;;11.48;;
12208;SDS011;6167;43.080;25.634;2023-11-21T10:00:00;21.25;;;10.25;;
12208;SDS011;6167;43.080;25.634;2023-11-21T10:02:36;92.15;;;44.13;;
12208;SDS011;6167;43.080;25.634;2023-11-21T10:05:07;38.28;;;19.02;;
12208;SDS011;6167;43.080;25.634;2023-11-21T10:07:36;15.85;;;10.75;;
12208;SDS011;6167;43.080;25.634;2023-11-21T10:10:06;14.40;;;8.63;;
12208;SDS011;6167;43.080;25.634;2023-11-21T10:12:34;9.73;;;7.45;;
12208;SDS011;6167;43.080;25.634;2023-11-21T10:15:02;14.23;;;8.75;;
12208;SDS011;6167;43.080;25.634;2023-11-21T10:17:31;11.38;;;7.18;;
12208;SDS011;6167;43.080;25.634;2023-11-21T10:20:09;8.98;;;5.40;;
12208;SDS011;6167;43.080;25.634;2023-11-21T10:22:38;6.20;;;4.43;;
12208;SDS011;6167;43.080;25.634;2023-11-21T10:25:07;4.50;;;3.72;;
12208;SDS011;6167;43.080;25.634;2023-11-21T10:27:34;3.78;;;3.17;;
12208;SDS011;6167;43.080;25.634;2023-11-21T10:30:00;4.65;;;2.60;;
12208;SDS011;6167;43.080;25.634;2023-11-21T10:32:28;3.58;;;2.63;;
12208;SDS011;6167;43.080;25.634;2023-11-21T10:34:57;5.32;;;2.83;;
12208;SDS011;6167;43.080;25.634;2023-11-21T10:37:26;4.72;;;3.20;;
12208;SDS011;6167;43.080;25.634;2023-11-21T10:39:56;2.13;;;1.92;;
12208;SDS011;6167;43.080;25.634;2023-11-21T10:42:23;3.92;;;2.38;;
12208;SDS011;6167;43.080;25.634;2023-11-21T10:44:50;2.33;;;2.00;;
12208;SDS011;6167;43.080;25.634;2023-11-21T10:47:17;2.83;;;2.00;;
12208;SDS011;6167;43.080;25.634;2023-11-21T10:49:44;3.55;;;1.85;;
12208;SDS011;6167;43.080;25.634;2023-11-21T10:52:12;2.75;;;1.63;;
12208;SDS011;6167;43.080;25.634;2023-11-21T10:54:43;2.13;;;1.70;;
12208;SDS011;6167;43.080;25.634;2023-11-21T10:57:10;1.52;;;1.42;;
12208;SDS011;6167;43.080;25.634;2023-11-21T10:59:40;2.35;;;1.63;;
12208;SDS011;6167;43.080;25.634;2023-11-21T11:02:14;3.20;;;2.10;;
12208;SDS011;6167;43.080;25.634;2023-11-21T11:04:46;2.25;;;1.60;;
12208;SDS011;6167;43.080;25.634;2023-11-21T11:07:12;1.95;;;1.75;;
12208;SDS011;6167;43.080;25.634;2023-11-21T11:09:39;2.17;;;1.65;;
12208;SDS011;6167;43.080;25.634;2023-11-21T11:12:08;2.33;;;1.60;;
12208;SDS011;6167;43.080;25.634;2023-11-21T11:14:35;2.75;;;1.63;;
12208;SDS011;6167;43.080;25.634;2023-11-21T11:17:02;2.35;;;1.38;;
12208;SDS011;6167;43.080;25.634;2023-11-21T11:19:30;2.85;;;1.50;;
12208;SDS011;6167;43.080;25.634;2023-11-21T11:22:00;3.65;;;1.60;;
12208;SDS011;6167;43.080;25.634;2023-11-21T11:24:33;2.95;;;1.45;;
12208;SDS011;6167;43.080;25.634;2023-11-21T11:27:09;1.65;;;1.30;;
12208;SDS011;6167;43.080;25.634;2023-11-21T11:29:40;1.90;;;1.67;;
12208;SDS011;6167;43.080;25.634;2023-11-21T11:32:12;1.70;;;1.60;;
12208;SDS011;6167;43.080;25.634;2023-11-21T11:34:41;2.83;;;1.75;;
12208;SDS011;6167;43.080;25.634;2023-11-21T11:37:08;1.60;;;1.50;;
12208;SDS011;6167;43.080;25.634;2023-11-21T11:39:35;1.63;;;1.52;;
12208;SDS011;6167;43.080;25.634;2023-11-21T11:42:02;1.95;;;1.60;;
12208;SDS011;6167;43.080;25.634;2023-11-21T11:44:47;1.35;;;1.30;;
12208;SDS011;6167;43.080;25.634;2023-11-21T11:47:16;1.50;;;1.40;;
12208;SDS011;6167;43.080;25.634;2023-11-21T11:49:54;1.55;;;1.45;;
12208;SDS011;6167;43.080;25.634;2023-11-21T11:52:34;2.75;;;1.70;;
12208;SDS011;6167;43.080;25.634;2023-11-21T11:55:01;2.83;;;1.52;;
12208;SDS011;6167;43.080;25.634;2023-11-21T11:57:29;1.50;;;1.40;;
12208;SDS011;6167;43.080;25.634;2023-11-21T12:00:10;2.00;;;1.80;;
12208;SDS011;6167;43.080;25.634;2023-11-21T12:02:41;1.58;;;1.40;;
12208;SDS011;6167;43.080;25.634;2023-11-21T12:05:09;2.58;;;1.67;;
12208;SDS011;6167;43.080;25.634;2023-11-21T12:07:43;2.17;;;1.60;;
12208;SDS011;6167;43.080;25.634;2023-11-21T12:10:11;2.35;;;1.65;;
12208;SDS011;6167;43.080;25.634;2023-11-21T12:12:42;2.05;;;1.67;;
12208;SDS011;6167;43.080;25.634;2023-11-21T12:15:09;2.65;;;1.60;;
12208;SDS011;6167;43.080;25.634;2023-11-21T12:17:37;1.98;;;1.85;;
12208;SDS011;6167;43.080;25.634;2023-11-21T12:20:04;1.60;;;1.50;;
12208;SDS011;6167;43.080;25.634;2023-11-21T12:22:31;2.75;;;1.88;;
12208;SDS011;6167;43.080;25.634;2023-11-21T12:24:58;3.92;;;2.22;;
12208;SDS011;6167;43.080;25.634;2023-11-21T12:27:24;1.83;;;1.50;;
12208;SDS011;6167;43.080;25.634;2023-11-21T12:29:51;1.50;;;1.40;;
12208;SDS011;6167;43.080;25.634;2023-11-21T12:32:18;1.70;;;1.48;;
12208;SDS011;6167;43.080;25.634;2023-11-21T12:34:47;1.60;;;1.50;;
12208;SDS011;6167;43.080;25.634;2023-11-21T12:37:14;1.70;;;1.60;;
12208;SDS011;6167;43.080;25.634;2023-11-21T12:39:42;1.70;;;1.60;;
12208;SDS011;6167;43.080;25.634;2023-11-21T12:42:08;1.60;;;1.50;;
12208;SDS011;6167;43.080;25.634;2023-11-21T12:44:35;1.85;;;1.70;;
12208;SDS011;6167;43.080;25.634;2023-11-21T12:47:02;1.80;;;1.65;;
12208;SDS011;6167;43.080;25.634;2023-11-21T12:49:30;2.65;;;1.90;;
12208;SDS011;6167;43.080;25.634;2023-11-21T12:52:00;5.05;;;2.47;;
12208;SDS011;6167;43.080;25.634;2023-11-21T12:54:28;3.60;;;1.95;;
12208;SDS011;6167;43.080;25.634;2023-11-21T12:56:59;1.80;;;1.70;;
12208;SDS011;6167;43.080;25.634;2023-11-21T12:59:26;2.88;;;2.10;;
12208;SDS011;6167;43.080;25.634;2023-11-21T13:01:54;2.00;;;1.80;;
12208;SDS011;6167;43.080;25.634;2023-11-21T13:04:29;2.35;;;1.50;;
12208;SDS011;6167;43.080;25.634;2023-11-21T13:06:55;1.67;;;1.58;;
12208;SDS011;6167;43.080;25.634;2023-11-21T13:09:30;2.53;;;1.77;;
12208;SDS011;6167;43.080;25.634;2023-11-21T13:11:59;2.03;;;1.83;;
12208;SDS011;6167;43.080;25.634;2023-11-21T13:14:28;1.95;;;1.80;;
12208;SDS011;6167;43.080;25.634;2023-11-21T13:16:57;2.28;;;2.08;;
12208;SDS011;6167;43.080;25.634;2023-11-21T13:19:23;2.10;;;1.60;;
12208;SDS011;6167;43.080;25.634;2023-11-21T13:21:50;5.90;;;1.85;;
12208;SDS011;6167;43.080;25.634;2023-11-21T13:24:16;1.85;;;1.58;;
12208;SDS011;6167;43.080;25.634;2023-11-21T13:26:45;4.13;;;2.25;;
12208;SDS011;6167;43.080;25.634;2023-11-21T13:29:12;2.20;;;2.00;;
12208;SDS011;6167;43.080;25.634;2023-11-21T13:31:39;2.05;;;1.85;;
12208;SDS011;6167;43.080;25.634;2023-11-21T13:34:06;8.80;;;2.55;;
12208;SDS011;6167;43.080;25.634;2023-11-21T13:36:33;4.45;;;1.88;;
12208;SDS011;6167;43.080;25.634;2023-11-21T13:39:00;4.07;;;2.22;;
12208;SDS011;6167;43.080;25.634;2023-11-21T13:41:32;4.45;;;2.28;;
12208;SDS011;6167;43.080;25.634;2023-11-21T13:44:00;5.65;;;1.92;;
12208;SDS011;6167;43.080;25.634;2023-11-21T13:46:39;5.75;;;2.22;;
12208;SDS011;6167;43.080;25.634;2023-11-21T13:49:06;2.15;;;1.80;;
12208;SDS011;6167;43.080;25.634;2023-11-21T13:51:35;5.93;;;5.32;;
12208;SDS011;6167;43.080;25.634;2023-11-21T13:54:05;2.63;;;2.20;;
12208;SDS011;6167;43.080;25.634;2023-11-21T13:56:34;2.33;;;2.13;;
12208;SDS011;6167;43.080;25.634;2023-11-21T13:59:02;2.33;;;2.00;;
12208;SDS011;6167;43.080;25.634;2023-11-21T14:01:38;4.63;;;2.20;;
12208;SDS011;6167;43.080;25.634;2023-11-21T14:04:19;3.33;;;2.00;;
12208;SDS011;6167;43.080;25.634;2023-11-21T14:07:00;4.35;;;2.10;;
12208;SDS011;6167;43.080;25.634;2023-11-21T14:09:39;7.65;;;2.70;;
12208;SDS011;6167;43.080;25.634;2023-11-21T14:12:09;2.45;;;2.25;;
12208;SDS011;6167;43.080;25.634;2023-11-21T14:14:39;10.98;;;3.30;;
12208;SDS011;6167;43.080;25.634;2023-11-21T14:17:05;7.40;;;2.75;;
12208;SDS011;6167;43.080;25.634;2023-11-21T14:19:32;2.20;;;1.80;;
12208;SDS011;6167;43.080;25.634;2023-11-21T14:22:01;5.38;;;2.55;;
12208;SDS011;6167;43.080;25.634;2023-11-21T14:24:28;9.98;;;3.67;;
12208;SDS011;6167;43.080;25.634;2023-11-21T14:26:56;3.35;;;2.10;;
12208;SDS011;6167;43.080;25.634;2023-11-21T14:29:22;2.97;;;2.10;;
12208;SDS011;6167;43.080;25.634;2023-11-21T14:31:51;3.87;;;2.70;;
12208;SDS011;6167;43.080;25.634;2023-11-21T14:34:21;2.55;;;2.35;;